Olympic Scout — WDD7216 — position and weather

sailwx.info

Track history (hours):
 
Tides and Currents Weather Stations Pressure Air Temp Water Temp Dewpoint Dewpoint Depression Visibility Wind Speed Wind Dir Waves Ship Positions

Olympic Scout

Owner: Harley Marine Services, Inc., Seattle, WA. More information available from US FCC via Universal Licensing System and Coast Guard Vessel Documentation Center.

Last reported at 2018-Jun-25 11:31 UTC. Time now 2018-Jun-25 11:30 UTC.
Position N 47°16' W 122°25'.

Length 31 m; draft 0.3 m.

Type: Tug. MMSI: 366998440.

Date/timePositionNaut miles runAvg speedWind from/ knotsBaromVisibWave heightAir tempDewpointWater temp
2018-Jun-25 11:31N 47°16' W 122°25'0 0.0
2018-Jun-25 11:01N 47°16' W 122°25'0 0.0
2018-Jun-25 10:30N 47°16' W 122°25'0 0.0
2018-Jun-25 10:00N 47°16' W 122°25'0 0.0
2018-Jun-25 09:30N 47°16' W 122°25'0 0.0
2018-Jun-25 09:00N 47°16' W 122°25'0 0.0
2018-Jun-25 08:30N 47°16' W 122°25'0 0.0
2018-Jun-25 08:00N 47°16' W 122°25'0 0.0
2018-Jun-25 07:31N 47°16' W 122°25'0 0.0
2018-Jun-25 07:00N 47°16' W 122°25'0 0.0
2018-Jun-25 06:31N 47°16' W 122°25'0 0.0
2018-Jun-25 06:00N 47°16' W 122°25'0 0.0
2018-Jun-25 05:30N 47°16' W 122°25'0 0.0
2018-Jun-25 05:01N 47°16' W 122°25'0 0.0
2018-Jun-25 04:31N 47°16' W 122°25'0 0.0
2018-Jun-25 03:59N 47°16' W 122°25'0 0.0
2018-Jun-25 03:28N 47°16' W 122°25'0 0.0
2018-Jun-25 02:58N 47°16' W 122°25'0 0.0
2018-Jun-25 02:26N 47°16' W 122°25'0 0.0
2018-Jun-25 02:00N 47°16' W 122°25'0 0.0
2018-Jun-25 01:25N 47°16' W 122°25'0 0.0
2018-Jun-25 01:00N 47°16' W 122°25'0 0.0
2018-Jun-25 00:20N 47°16' W 122°25'0 0.0
2018-Jun-24 23:41N 47°16' W 122°25'0 0.0
2018-Jun-24 23:28N 47°16' W 122°25'0 0.0
2018-Jun-24 22:56N 47°16' W 122°25'0 0.0
2018-Jun-24 11:34N 47°16' W 122°25'0 0.0
2018-Jun-24 11:20N 47°16' W 122°25'0 0.0
2018-Jun-24 10:48N 47°16' W 122°25'0 0.0
2018-Jun-24 10:27N 47°16' W 122°25'0 0.0
2018-Jun-24 09:56N 47°16' W 122°25'0 0.0
2018-Jun-24 09:13N 47°16' W 122°25'0 0.0
2018-Jun-24 08:59N 47°16' W 122°25'0 0.0
2018-Jun-24 08:22N 47°16' W 122°25'0 0.0
2018-Jun-24 07:53N 47°16' W 122°25'0 0.0
2018-Jun-24 07:28N 47°16' W 122°25'0 0.0
2018-Jun-24 07:00N 47°16' W 122°25'0 0.0
2018-Jun-24 06:27N 47°16' W 122°25'0 0.0
2018-Jun-24 05:42N 47°16' W 122°25'0 0.0
2018-Jun-24 05:29N 47°16' W 122°25'0 0.0
2018-Jun-24 04:59N 47°16' W 122°25'1 1.3
2018-Jun-24 04:30N 47°17' W 122°25'1 0.1
2018-Jun-23 18:13N 47°17' W 122°26'0 1.1
2018-Jun-23 17:58N 47°17' W 122°26'2 3.2
2018-Jun-23 17:15N 47°19' W 122°29'1 3.6
2018-Jun-23 17:00N 47°18' W 122°28'0 0.7
2018-Jun-23 16:25N 47°18' W 122°29'1 2.3
2018-Jun-23 16:00N 47°19' W 122°30'3 4.3
2018-Jun-23 15:23N 47°17' W 122°27'2 3.9
2018-Jun-23 14:55N 47°18' W 122°29'0 0.7
2018-Jun-23 14:25N 47°18' W 122°28'1 1.7
2018-Jun-23 13:57N 47°17' W 122°28'2 3.7
2018-Jun-23 13:22N 47°19' W 122°28'2 4.2
2018-Jun-23 12:54N 47°21' W 122°26'2 4.1
2018-Jun-23 12:23N 47°22' W 122°24'2 4.1
2018-Jun-23 12:00N 47°23' W 122°22'2 3.9
2018-Jun-23 11:30N 47°25' W 122°23'2 4.1
2018-Jun-23 11:00N 47°27' W 122°25'2 3.9
2018-Jun-23 10:31N 47°28' W 122°25'2 4.0
2018-Jun-23 10:01N 47°30' W 122°26'2 4.1
2018-Jun-23 09:30N 47°32' W 122°27'2 4.1
2018-Jun-23 09:00N 47°34' W 122°26'2 4.4
2018-Jun-23 08:30N 47°36' W 122°24'2 4.2
2018-Jun-23 08:00N 47°36' W 122°21'1 1.8
2018-Jun-23 07:30N 47°35' W 122°21'0 0.1
2018-Jun-23 07:01N 47°35' W 122°21'0 0.1
2018-Jun-23 06:28N 47°35' W 122°21'0 0.0
2018-Jun-23 05:58N 47°35' W 122°21'0 0.0
2018-Jun-23 05:28N 47°35' W 122°21'0 0.0
2018-Jun-23 04:52N 47°35' W 122°21'0 0.0
2018-Jun-23 04:28N 47°35' W 122°21'0 0.0
2018-Jun-23 03:58N 47°35' W 122°21'0 0.0
2018-Jun-23 03:22N 47°35' W 122°21'0 0.0
2018-Jun-23 02:58N 47°35' W 122°21'0 0.0
2018-Jun-23 02:28N 47°35' W 122°21'0 0.1
2018-Jun-23 01:55N 47°35' W 122°21'0 0.6
2018-Jun-23 01:28N 47°35' W 122°21'1 1.8
2018-Jun-23 01:00N 47°36' W 122°21'1 2.2
2018-Jun-23 00:30N 47°37' W 122°22'0 0.3
2018-Jun-23 00:00N 47°37' W 122°22'0 0.2
2018-Jun-22 23:30N 47°37' W 122°22'0 0.4
2018-Jun-22 23:00N 47°37' W 122°22'1 1.0
2018-Jun-22 22:20N 47°38' W 122°23'0 0.3
2018-Jun-22 22:01N 47°38' W 122°23'0 0.2
2018-Jun-22 21:29N 47°38' W 122°23'0 0.1
2018-Jun-22 20:59N 47°38' W 122°23'0 0.0
2018-Jun-22 20:29N 47°38' W 122°23'0 0.4
2018-Jun-22 20:00N 47°38' W 122°23'0 0.0
2018-Jun-22 19:30N 47°38' W 122°23'0 0.4
2018-Jun-22 19:00N 47°38' W 122°23'0 0.3
2018-Jun-22 18:30N 47°38' W 122°23'0 0.2
2018-Jun-22 17:59N 47°38' W 122°23'0 0.1
2018-Jun-22 17:29N 47°38' W 122°23'0 0.1
2018-Jun-22 16:59N 47°38' W 122°23'0 0.1
2018-Jun-22 16:29N 47°38' W 122°23'0 0.0
2018-Jun-22 15:59N 47°38' W 122°23'0 0.1
2018-Jun-22 15:29N 47°38' W 122°23'0 0.0
2018-Jun-22 14:59N 47°38' W 122°23'0 0.1
2018-Jun-22 14:26N 47°38' W 122°23'0 0.6
2018-Jun-22 14:00N 47°37' W 122°23'2 4.9
2018-Jun-22 13:30N 47°35' W 122°21'0 0.1
2018-Jun-22 12:59N 47°35' W 122°21'0 0.0
2018-Jun-22 12:26N 47°35' W 122°21'0 0.0
2018-Jun-22 11:59N 47°35' W 122°21'0 0.0
2018-Jun-22 11:26N 47°35' W 122°21'0 0.0
2018-Jun-22 10:59N 47°35' W 122°21'0 0.0
2018-Jun-22 10:23N 47°35' W 122°21'0 0.0
2018-Jun-22 09:59N 47°35' W 122°21'0 0.0
2018-Jun-22 09:27N 47°35' W 122°21'0 0.0
2018-Jun-22 08:56N 47°35' W 122°21'0 0.0
2018-Jun-22 08:30N 47°35' W 122°21'0 0.2
2018-Jun-22 07:58N 47°35' W 122°21'0 0.0
2018-Jun-22 07:29N 47°35' W 122°21'0 0.1
2018-Jun-22 07:01N 47°35' W 122°21'0 0.0
2018-Jun-22 06:30N 47°35' W 122°21'0 0.0
2018-Jun-22 06:01N 47°35' W 122°21'0 0.0
2018-Jun-22 05:30N 47°35' W 122°21'0 0.0
2018-Jun-22 05:00N 47°35' W 122°21'0 0.1
2018-Jun-22 04:30N 47°35' W 122°21'0 0.0
2018-Jun-22 04:00N 47°35' W 122°21'0 0.0
2018-Jun-22 03:30N 47°35' W 122°21'0 0.0
2018-Jun-22 03:01N 47°35' W 122°21'0 0.1
2018-Jun-22 02:31N 47°35' W 122°21'1 2.1
2018-Jun-22 02:00N 47°34' W 122°21'0 0.0
2018-Jun-22 01:28N 47°34' W 122°21'1 2.3
2018-Jun-22 01:01N 47°35' W 122°21'0 0.2
2018-Jun-22 00:31N 47°35' W 122°21'2 3.2
2018-Jun-22 00:00N 47°36' W 122°23'3 6.3
2018-Jun-21 23:31N 47°34' W 122°26'3 6.8
2018-Jun-21 23:01N 47°30' W 122°25'3 6.9
2018-Jun-21 22:30N 47°27' W 122°23'3 6.7
2018-Jun-21 22:00N 47°24' W 122°21'3 6.4
2018-Jun-21 21:31N 47°21' W 122°23'3 6.9
2018-Jun-21 21:00N 47°19' W 122°27'2 4.7
2018-Jun-21 20:30N 47°17' W 122°25'1 2.7
2018-Jun-21 20:01N 47°16' W 122°24'0 0.1
2018-Jun-21 19:29N 47°16' W 122°23'0 0.1
2018-Jun-21 19:01N 47°16' W 122°23'0 0.0
2018-Jun-21 18:31N 47°16' W 122°23'0 0.0
2018-Jun-21 18:00N 47°16' W 122°23'0 0.0
2018-Jun-21 17:31N 47°16' W 122°23'0 0.0
2018-Jun-21 16:59N 47°16' W 122°23'0 0.0
2018-Jun-21 16:30N 47°16' W 122°23'0 0.1
2018-Jun-21 16:00N 47°16' W 122°24'0 0.0
2018-Jun-21 15:30N 47°16' W 122°24'0 0.1
2018-Jun-21 15:00N 47°16' W 122°23'0 0.0
2018-Jun-21 14:30N 47°16' W 122°23'0 0.0
2018-Jun-21 14:01N 47°16' W 122°23'0 0.0
2018-Jun-21 13:31N 47°16' W 122°23'0 0.0
2018-Jun-21 13:00N 47°16' W 122°23'2 3.6
2018-Jun-21 12:31N 47°17' W 122°25'2 3.5
2018-Jun-21 12:01N 47°18' W 122°27'3 5.2
2018-Jun-21 11:31N 47°21' W 122°26'3 5.5
2018-Jun-21 11:01N 47°23' W 122°23'2 4.6
2018-Jun-21 10:31N 47°25' W 122°23'3 5.6
2018-Jun-21 10:01N 47°27' W 122°25'3 5.3
2018-Jun-21 09:31N 47°30' W 122°26'3 5.2
2018-Jun-21 09:00N 47°32' W 122°27'3 5.4
2018-Jun-21 08:31N 47°35' W 122°26'2 4.1
2018-Jun-21 08:00N 47°36' W 122°23'2 3.7
2018-Jun-21 07:29N 47°36' W 122°21'0 0.4
2018-Jun-21 07:00N 47°35' W 122°21'0 0.1
2018-Jun-21 06:31N 47°35' W 122°21'0 0.0
2018-Jun-21 06:00N 47°35' W 122°21'0 0.0
2018-Jun-21 05:30N 47°35' W 122°21'1 1.7
2018-Jun-21 04:57N 47°34' W 122°21'1 2.1
2018-Jun-21 04:31N 47°35' W 122°21'0 0.0
2018-Jun-21 04:01N 47°35' W 122°21'0 0.0
2018-Jun-21 03:31N 47°35' W 122°21'0 0.0
2018-Jun-21 03:01N 47°35' W 122°21'0 0.0
2018-Jun-21 02:31N 47°35' W 122°21'0 0.0
2018-Jun-21 02:00N 47°35' W 122°21'0 0.0
2018-Jun-21 01:31N 47°35' W 122°21'0 0.0
2018-Jun-21 00:59N 47°35' W 122°21'0 0.0
2018-Jun-21 00:30N 47°35' W 122°21'1 1.8
2018-Jun-21 00:00N 47°34' W 122°21'0 0.0
2018-Jun-20 23:30N 47°34' W 122°21'0 0.0
2018-Jun-20 23:01N 47°34' W 122°21'0 0.0
2018-Jun-20 22:30N 47°34' W 122°21'0 0.0
2018-Jun-20 22:01N 47°34' W 122°21'0 0.0
2018-Jun-20 21:30N 47°34' W 122°21'0 0.0
2018-Jun-20 21:00N 47°34' W 122°21'0 0.0
2018-Jun-20 20:31N 47°34' W 122°21'1 1.8
2018-Jun-20 20:00N 47°35' W 122°21'0 0.1
2018-Jun-20 19:31N 47°35' W 122°21'0 0.0
2018-Jun-20 19:00N 47°35' W 122°21'0 0.0
2018-Jun-20 18:31N 47°35' W 122°21'0 0.0
2018-Jun-20 18:01N 47°35' W 122°21'0 0.0
2018-Jun-20 17:31N 47°35' W 122°21'0 0.0
2018-Jun-20 17:00N 47°35' W 122°21'0 0.0
2018-Jun-20 16:31N 47°35' W 122°21'0 0.0
2018-Jun-20 16:01N 47°35' W 122°21'0 0.0
2018-Jun-20 15:30N 47°35' W 122°21'0 0.0
2018-Jun-20 14:59N 47°35' W 122°21'0 0.0
2018-Jun-20 14:31N 47°35' W 122°21'0 0.0
2018-Jun-20 13:59N 47°35' W 122°21'0 0.0
2018-Jun-20 13:30N 47°35' W 122°21'0 0.0
2018-Jun-20 13:00N 47°35' W 122°21'0 0.0
2018-Jun-20 12:31N 47°35' W 122°21'0 0.0
2018-Jun-20 12:01N 47°35' W 122°21'0 0.0
2018-Jun-20 11:30N 47°35' W 122°21'0 0.0
2018-Jun-20 11:00N 47°35' W 122°21'0 0.0
2018-Jun-20 10:31N 47°35' W 122°21'0 0.0
2018-Jun-20 10:01N 47°35' W 122°21'0 0.0
2018-Jun-20 09:30N 47°35' W 122°21'0 0.0
2018-Jun-20 08:59N 47°35' W 122°21'0 0.0
2018-Jun-20 08:29N 47°35' W 122°21'0 0.0
2018-Jun-20 07:58N 47°35' W 122°21'0 0.0
2018-Jun-20 07:30N 47°35' W 122°21'0 0.0
2018-Jun-20 07:00N 47°35' W 122°21'0 0.1
2018-Jun-20 06:29N 47°35' W 122°21'0 0.6
2018-Jun-20 06:00N 47°36' W 122°21'2 4.3
2018-Jun-20 05:30N 47°37' W 122°23'2 3.2
2018-Jun-20 05:01N 47°38' W 122°25'3 5.8
2018-Jun-20 04:30N 47°40' W 122°28'3 5.6
2018-Jun-20 04:01N 47°43' W 122°28'3 5.6
2018-Jun-20 03:30N 47°45' W 122°27'3 5.5
2018-Jun-20 03:01N 47°48' W 122°28'3 5.7
2018-Jun-20 02:31N 47°51' W 122°29'3 6.3
2018-Jun-20 02:01N 47°54' W 122°30'4 6.5
2018-Jun-20 01:24N 47°57' W 122°34'29 5.3
2018-Jun-19 19:59N 48°25' W 122°45'4 8.2
2018-Jun-19 19:29N 48°29' W 122°45'3 7.3
2018-Jun-19 19:01N 48°32' W 122°45'4 7.3
2018-Jun-19 18:31N 48°36' W 122°46'3 6.2
2018-Jun-19 18:00N 48°39' W 122°44'3 6.0
2018-Jun-19 17:30N 48°42' W 122°45'1 0.0
2018-Jun-18 17:14N 48°43' W 122°44'1 4.9
2018-Jun-18 16:59N 48°42' W 122°43'2 3.9
2018-Jun-18 16:31N 48°40' W 122°42'2 3.9
2018-Jun-18 16:00N 48°38' W 122°44'2 4.7
2018-Jun-18 15:30N 48°36' W 122°45'2 5.0
2018-Jun-18 15:00N 48°34' W 122°45'2 4.6
2018-Jun-18 14:31N 48°31' W 122°44'2 4.5
2018-Jun-18 13:58N 48°29' W 122°44'5 4.7
2018-Jun-18 13:00N 48°24' W 122°44'25 5.1
2018-Jun-18 08:03N 47°60' W 122°36'1 8.3
2018-Jun-18 07:55N 47°59' W 122°35'3 7.8
2018-Jun-18 07:29N 47°57' W 122°31'3 6.3
2018-Jun-18 07:01N 47°54' W 122°29'3 6.1
2018-Jun-18 06:30N 47°51' W 122°27'3 6.1
2018-Jun-18 06:01N 47°48' W 122°26'3 5.8
2018-Jun-18 05:31N 47°46' W 122°26'3 6.1
2018-Jun-18 05:01N 47°43' W 122°26'3 6.1
2018-Jun-18 04:31N 47°40' W 122°27'3 5.9
2018-Jun-18 04:01N 47°37' W 122°27'3 6.1
2018-Jun-18 03:30N 47°33' W 122°26'3 5.9
2018-Jun-18 03:01N 47°31' W 122°25'3 5.5
2018-Jun-18 02:30N 47°28' W 122°24'3 5.4
2018-Jun-18 02:01N 47°26' W 122°22'3 5.6
2018-Jun-18 01:31N 47°23' W 122°21'3 5.7
2018-Jun-18 01:00N 47°21' W 122°24'3 5.7
2018-Jun-18 00:30N 47°19' W 122°27'2 4.3
2018-Jun-18 00:01N 47°17' W 122°26'1 1.6
2018-Jun-17 23:29N 47°17' W 122°25'0 0.1
2018-Jun-17 22:59N 47°17' W 122°25'0 0.1
2018-Jun-17 22:30N 47°17' W 122°25'0 0.0
2018-Jun-17 21:58N 47°17' W 122°25'0 0.0
2018-Jun-17 21:28N 47°17' W 122°25'0 0.0
2018-Jun-17 20:59N 47°17' W 122°25'0 0.0
2018-Jun-17 20:28N 47°17' W 122°25'0 0.1
2018-Jun-17 20:01N 47°17' W 122°25'0 0.1
2018-Jun-17 19:31N 47°17' W 122°25'1 2.2
2018-Jun-17 19:00N 47°16' W 122°23'0 0.0
2018-Jun-17 18:30N 47°16' W 122°23'0 0.0
2018-Jun-17 18:00N 47°16' W 122°23'0 0.0
2018-Jun-17 17:30N 47°16' W 122°23'0 0.0
2018-Jun-17 17:00N 47°16' W 122°23'0 0.0
2018-Jun-17 16:31N 47°16' W 122°23'0 0.0
2018-Jun-17 16:01N 47°16' W 122°23'0 0.0
2018-Jun-17 15:28N 47°16' W 122°23'0 0.0
2018-Jun-17 14:48N 47°16' W 122°23'0 0.0
2018-Jun-17 14:31N 47°16' W 122°23'0 0.0
2018-Jun-17 13:52N 47°16' W 122°23'0 0.0
2018-Jun-17 13:30N 47°16' W 122°23'0 0.0
2018-Jun-17 13:01N 47°16' W 122°23'0 0.0
2018-Jun-17 12:30N 47°16' W 122°23'0 0.0
2018-Jun-17 12:01N 47°16' W 122°23'0 0.0
2018-Jun-17 11:30N 47°16' W 122°23'0 0.1
2018-Jun-17 10:59N 47°16' W 122°23'0 0.1
2018-Jun-17 10:31N 47°16' W 122°23'0 0.0
2018-Jun-17 10:01N 47°16' W 122°23'0 0.0
2018-Jun-17 09:31N 47°16' W 122°23'0 0.0
2018-Jun-17 09:01N 47°16' W 122°23'0 0.0
2018-Jun-17 08:30N 47°16' W 122°23'0 0.0
2018-Jun-17 08:00N 47°16' W 122°23'0 0.0
2018-Jun-17 07:31N 47°16' W 122°23'0 0.0
2018-Jun-17 07:01N 47°16' W 122°23'0 0.1
2018-Jun-17 06:31N 47°16' W 122°24'0 0.1
2018-Jun-17 06:01N 47°16' W 122°23'1 0.9
2018-Jun-17 05:24N 47°16' W 122°24'1 1.6
2018-Jun-17 05:00N 47°17' W 122°24'1 0.1
2018-Jun-16 21:51N 47°17' W 122°25'2 5.0
2018-Jun-16 21:30N 47°16' W 122°23'0 0.0
2018-Jun-16 20:59N 47°16' W 122°23'0 0.0
2018-Jun-16 20:29N 47°16' W 122°23'0 0.0
2018-Jun-16 20:00N 47°16' W 122°23'0 0.0
2018-Jun-16 19:30N 47°16' W 122°23'0 0.0
2018-Jun-16 19:00N 47°16' W 122°23'0 0.0
2018-Jun-16 18:29N 47°16' W 122°23'0 0.0
2018-Jun-16 18:01N 47°16' W 122°23'0 0.0
2018-Jun-16 17:30N 47°16' W 122°23'0 0.0
2018-Jun-16 17:01N 47°16' W 122°23'0 0.0
2018-Jun-16 16:31N 47°16' W 122°23'0 0.0
2018-Jun-16 16:00N 47°16' W 122°23'0 0.0
2018-Jun-16 15:24N 47°16' W 122°23'0 0.0
2018-Jun-16 15:01N 47°16' W 122°23'0 0.0
2018-Jun-16 14:31N 47°16' W 122°23'0 0.0
2018-Jun-16 13:59N 47°16' W 122°23'0 0.4
2018-Jun-16 13:30N 47°16' W 122°23'2 4.4
2018-Jun-16 13:01N 47°17' W 122°26'2 3.7
2018-Jun-16 12:30N 47°19' W 122°28'3 5.7
2018-Jun-16 12:00N 47°21' W 122°25'3 5.9
2018-Jun-16 11:31N 47°23' W 122°22'3 5.7
2018-Jun-16 11:01N 47°25' W 122°24'3 5.9
2018-Jun-16 10:31N 47°28' W 122°25'3 5.9
2018-Jun-16 10:00N 47°31' W 122°26'3 6.0
2018-Jun-16 09:31N 47°34' W 122°26'3 5.7
2018-Jun-16 09:00N 47°36' W 122°23'2 3.8
2018-Jun-16 08:31N 47°35' W 122°21'0 0.2
2018-Jun-16 08:01N 47°35' W 122°21'0 0.1
2018-Jun-16 07:31N 47°35' W 122°21'0 0.0
2018-Jun-16 07:00N 47°35' W 122°21'0 0.0
2018-Jun-16 06:30N 47°35' W 122°21'0 0.0
2018-Jun-16 06:01N 47°35' W 122°21'0 0.0
2018-Jun-16 05:30N 47°35' W 122°21'0 0.0
2018-Jun-16 05:01N 47°35' W 122°21'0 0.0
2018-Jun-16 04:31N 47°35' W 122°21'0 0.0
2018-Jun-16 04:00N 47°35' W 122°21'0 0.0
2018-Jun-16 03:31N 47°35' W 122°21'0 0.1
2018-Jun-16 03:00N 47°35' W 122°21'0 0.1
2018-Jun-16 02:31N 47°35' W 122°21'0 0.0
2018-Jun-16 02:01N 47°35' W 122°21'0 0.0
2018-Jun-16 01:31N 47°35' W 122°21'0 0.0
2018-Jun-16 01:01N 47°35' W 122°21'0 0.0
2018-Jun-16 00:30N 47°35' W 122°21'0 0.0
2018-Jun-16 00:00N 47°35' W 122°21'0 0.0
2018-Jun-15 23:29N 47°35' W 122°21'0 0.2
2018-Jun-15 22:57N 47°35' W 122°21'2 4.3
2018-Jun-15 22:27N 47°37' W 122°23'0 0.9
2018-Jun-15 22:00N 47°38' W 122°23'0 0.0
2018-Jun-15 21:30N 47°38' W 122°23'0 0.1
2018-Jun-15 21:00N 47°38' W 122°23'0 0.0
2018-Jun-15 20:30N 47°38' W 122°23'0 0.0
2018-Jun-15 20:00N 47°38' W 122°23'0 0.8
2018-Jun-15 19:31N 47°37' W 122°23'0 0.8
2018-Jun-15 19:01N 47°38' W 122°23'0 0.3
2018-Jun-15 18:30N 47°38' W 122°23'0 0.0
2018-Jun-15 18:01N 47°38' W 122°23'0 0.0
2018-Jun-15 17:31N 47°38' W 122°23'0 0.1
2018-Jun-15 17:01N 47°38' W 122°23'0 0.1
2018-Jun-15 16:30N 47°38' W 122°23'0 0.0
2018-Jun-15 16:01N 47°38' W 122°23'0 0.0
2018-Jun-15 15:31N 47°38' W 122°23'0 0.1
2018-Jun-15 14:59N 47°38' W 122°23'0 0.1
2018-Jun-15 14:31N 47°38' W 122°23'0 0.9
2018-Jun-15 14:00N 47°37' W 122°23'2 4.7
2018-Jun-15 13:30N 47°35' W 122°21'0 0.1
2018-Jun-15 13:01N 47°35' W 122°21'0 0.0
2018-Jun-15 12:30N 47°35' W 122°21'0 0.0
2018-Jun-15 12:00N 47°35' W 122°21'  
Track history (hours):
 
Tides and Currents Weather Stations Pressure Air Temp Water Temp Dewpoint Dewpoint Depression Visibility Wind Speed Wind Dir Waves Ship Positions

Olympic Scout

Owner: Harley Marine Services, Inc., Seattle, WA. More information available from US FCC via Universal Licensing System and Coast Guard Vessel Documentation Center.

Last reported at 2018-Jun-25 11:31 UTC. Time now 2018-Jun-25 11:30 UTC.
Position N 47°16' W 122°25'.

Length 31 m; draft 0.3 m.

Type: Tug. MMSI: 366998440.

Date/timePositionNaut miles runAvg speedWind from/ knotsBaromVisibWave heightAir tempDewpointWater temp
2018-Jun-25 11:31N 47°16' W 122°25'0 0.0
2018-Jun-25 11:01N 47°16' W 122°25'0 0.0
2018-Jun-25 10:30N 47°16' W 122°25'0 0.0
2018-Jun-25 10:00N 47°16' W 122°25'0 0.0
2018-Jun-25 09:30N 47°16' W 122°25'0 0.0
2018-Jun-25 09:00N 47°16' W 122°25'0 0.0
2018-Jun-25 08:30N 47°16' W 122°25'0 0.0
2018-Jun-25 08:00N 47°16' W 122°25'0 0.0
2018-Jun-25 07:31N 47°16' W 122°25'0 0.0
2018-Jun-25 07:00N 47°16' W 122°25'0 0.0
2018-Jun-25 06:31N 47°16' W 122°25'0 0.0
2018-Jun-25 06:00N 47°16' W 122°25'0 0.0
2018-Jun-25 05:30N 47°16' W 122°25'0 0.0
2018-Jun-25 05:01N 47°16' W 122°25'0 0.0
2018-Jun-25 04:31N 47°16' W 122°25'0 0.0
2018-Jun-25 03:59N 47°16' W 122°25'0 0.0
2018-Jun-25 03:28N 47°16' W 122°25'0 0.0
2018-Jun-25 02:58N 47°16' W 122°25'0 0.0
2018-Jun-25 02:26N 47°16' W 122°25'0 0.0
2018-Jun-25 02:00N 47°16' W 122°25'0 0.0
2018-Jun-25 01:25N 47°16' W 122°25'0 0.0
2018-Jun-25 01:00N 47°16' W 122°25'0 0.0
2018-Jun-25 00:20N 47°16' W 122°25'0 0.0
2018-Jun-24 23:41N 47°16' W 122°25'0 0.0
2018-Jun-24 23:28N 47°16' W 122°25'0 0.0
2018-Jun-24 22:56N 47°16' W 122°25'0 0.0
2018-Jun-24 11:34N 47°16' W 122°25'0 0.0
2018-Jun-24 11:20N 47°16' W 122°25'0 0.0
2018-Jun-24 10:48N 47°16' W 122°25'0 0.0
2018-Jun-24 10:27N 47°16' W 122°25'0 0.0
2018-Jun-24 09:56N 47°16' W 122°25'0 0.0
2018-Jun-24 09:13N 47°16' W 122°25'0 0.0
2018-Jun-24 08:59N 47°16' W 122°25'0 0.0
2018-Jun-24 08:22N 47°16' W 122°25'0 0.0
2018-Jun-24 07:53N 47°16' W 122°25'0 0.0
2018-Jun-24 07:28N 47°16' W 122°25'0 0.0
2018-Jun-24 07:00N 47°16' W 122°25'0 0.0
2018-Jun-24 06:27N 47°16' W 122°25'0 0.0
2018-Jun-24 05:42N 47°16' W 122°25'0 0.0
2018-Jun-24 05:29N 47°16' W 122°25'0 0.0
2018-Jun-24 04:59N 47°16' W 122°25'1 1.3
2018-Jun-24 04:30N 47°17' W 122°25'1 0.1
2018-Jun-23 18:13N 47°17' W 122°26'0 1.1
2018-Jun-23 17:58N 47°17' W 122°26'2 3.2
2018-Jun-23 17:15N 47°19' W 122°29'1 3.6
2018-Jun-23 17:00N 47°18' W 122°28'0 0.7
2018-Jun-23 16:25N 47°18' W 122°29'1 2.3
2018-Jun-23 16:00N 47°19' W 122°30'3 4.3
2018-Jun-23 15:23N 47°17' W 122°27'2 3.9
2018-Jun-23 14:55N 47°18' W 122°29'0 0.7
2018-Jun-23 14:25N 47°18' W 122°28'1 1.7
2018-Jun-23 13:57N 47°17' W 122°28'2 3.7
2018-Jun-23 13:22N 47°19' W 122°28'2 4.2
2018-Jun-23 12:54N 47°21' W 122°26'2 4.1
2018-Jun-23 12:23N 47°22' W 122°24'2 4.1
2018-Jun-23 12:00N 47°23' W 122°22'2 3.9
2018-Jun-23 11:30N 47°25' W 122°23'2 4.1
2018-Jun-23 11:00N 47°27' W 122°25'2 3.9
2018-Jun-23 10:31N 47°28' W 122°25'2 4.0
2018-Jun-23 10:01N 47°30' W 122°26'2 4.1
2018-Jun-23 09:30N 47°32' W 122°27'2 4.1
2018-Jun-23 09:00N 47°34' W 122°26'2 4.4
2018-Jun-23 08:30N 47°36' W 122°24'2 4.2
2018-Jun-23 08:00N 47°36' W 122°21'1 1.8
2018-Jun-23 07:30N 47°35' W 122°21'0 0.1
2018-Jun-23 07:01N 47°35' W 122°21'0 0.1
2018-Jun-23 06:28N 47°35' W 122°21'0 0.0
2018-Jun-23 05:58N 47°35' W 122°21'0 0.0
2018-Jun-23 05:28N 47°35' W 122°21'0 0.0
2018-Jun-23 04:52N 47°35' W 122°21'0 0.0
2018-Jun-23 04:28N 47°35' W 122°21'0 0.0
2018-Jun-23 03:58N 47°35' W 122°21'0 0.0
2018-Jun-23 03:22N 47°35' W 122°21'0 0.0
2018-Jun-23 02:58N 47°35' W 122°21'0 0.0
2018-Jun-23 02:28N 47°35' W 122°21'0 0.1
2018-Jun-23 01:55N 47°35' W 122°21'0 0.6
2018-Jun-23 01:28N 47°35' W 122°21'1 1.8
2018-Jun-23 01:00N 47°36' W 122°21'1 2.2
2018-Jun-23 00:30N 47°37' W 122°22'0 0.3
2018-Jun-23 00:00N 47°37' W 122°22'0 0.2
2018-Jun-22 23:30N 47°37' W 122°22'0 0.4
2018-Jun-22 23:00N 47°37' W 122°22'1 1.0
2018-Jun-22 22:20N 47°38' W 122°23'0 0.3
2018-Jun-22 22:01N 47°38' W 122°23'0 0.2
2018-Jun-22 21:29N 47°38' W 122°23'0 0.1
2018-Jun-22 20:59N 47°38' W 122°23'0 0.0
2018-Jun-22 20:29N 47°38' W 122°23'0 0.4
2018-Jun-22 20:00N 47°38' W 122°23'0 0.0
2018-Jun-22 19:30N 47°38' W 122°23'0 0.4
2018-Jun-22 19:00N 47°38' W 122°23'0 0.3
2018-Jun-22 18:30N 47°38' W 122°23'0 0.2
2018-Jun-22 17:59N 47°38' W 122°23'0 0.1
2018-Jun-22 17:29N 47°38' W 122°23'0 0.1
2018-Jun-22 16:59N 47°38' W 122°23'0 0.1
2018-Jun-22 16:29N 47°38' W 122°23'0 0.0
2018-Jun-22 15:59N 47°38' W 122°23'0 0.1
2018-Jun-22 15:29N 47°38' W 122°23'0 0.0
2018-Jun-22 14:59N 47°38' W 122°23'0 0.1
2018-Jun-22 14:26N 47°38' W 122°23'0 0.6
2018-Jun-22 14:00N 47°37' W 122°23'2 4.9
2018-Jun-22 13:30N 47°35' W 122°21'0 0.1
2018-Jun-22 12:59N 47°35' W 122°21'0 0.0
2018-Jun-22 12:26N 47°35' W 122°21'0 0.0
2018-Jun-22 11:59N 47°35' W 122°21'0 0.0
2018-Jun-22 11:26N 47°35' W 122°21'0 0.0
2018-Jun-22 10:59N 47°35' W 122°21'0 0.0
2018-Jun-22 10:23N 47°35' W 122°21'0 0.0
2018-Jun-22 09:59N 47°35' W 122°21'0 0.0
2018-Jun-22 09:27N 47°35' W 122°21'0 0.0
2018-Jun-22 08:56N 47°35' W 122°21'0 0.0
2018-Jun-22 08:30N 47°35' W 122°21'0 0.2
2018-Jun-22 07:58N 47°35' W 122°21'0 0.0
2018-Jun-22 07:29N 47°35' W 122°21'0 0.1
2018-Jun-22 07:01N 47°35' W 122°21'0 0.0
2018-Jun-22 06:30N 47°35' W 122°21'0 0.0
2018-Jun-22 06:01N 47°35' W 122°21'0 0.0
2018-Jun-22 05:30N 47°35' W 122°21'0 0.0
2018-Jun-22 05:00N 47°35' W 122°21'0 0.1
2018-Jun-22 04:30N 47°35' W 122°21'0 0.0
2018-Jun-22 04:00N 47°35' W 122°21'0 0.0
2018-Jun-22 03:30N 47°35' W 122°21'0 0.0
2018-Jun-22 03:01N 47°35' W 122°21'0 0.1
2018-Jun-22 02:31N 47°35' W 122°21'1 2.1
2018-Jun-22 02:00N 47°34' W 122°21'0 0.0
2018-Jun-22 01:28N 47°34' W 122°21'1 2.3
2018-Jun-22 01:01N 47°35' W 122°21'0 0.2
2018-Jun-22 00:31N 47°35' W 122°21'2 3.2
2018-Jun-22 00:00N 47°36' W 122°23'3 6.3
2018-Jun-21 23:31N 47°34' W 122°26'3 6.8
2018-Jun-21 23:01N 47°30' W 122°25'3 6.9
2018-Jun-21 22:30N 47°27' W 122°23'3 6.7
2018-Jun-21 22:00N 47°24' W 122°21'3 6.4
2018-Jun-21 21:31N 47°21' W 122°23'3 6.9
2018-Jun-21 21:00N 47°19' W 122°27'2 4.7
2018-Jun-21 20:30N 47°17' W 122°25'1 2.7
2018-Jun-21 20:01N 47°16' W 122°24'0 0.1
2018-Jun-21 19:29N 47°16' W 122°23'0 0.1
2018-Jun-21 19:01N 47°16' W 122°23'0 0.0
2018-Jun-21 18:31N 47°16' W 122°23'0 0.0
2018-Jun-21 18:00N 47°16' W 122°23'0 0.0
2018-Jun-21 17:31N 47°16' W 122°23'0 0.0
2018-Jun-21 16:59N 47°16' W 122°23'0 0.0
2018-Jun-21 16:30N 47°16' W 122°23'0 0.1
2018-Jun-21 16:00N 47°16' W 122°24'0 0.0
2018-Jun-21 15:30N 47°16' W 122°24'0 0.1
2018-Jun-21 15:00N 47°16' W 122°23'0 0.0
2018-Jun-21 14:30N 47°16' W 122°23'0 0.0
2018-Jun-21 14:01N 47°16' W 122°23'0 0.0
2018-Jun-21 13:31N 47°16' W 122°23'0 0.0
2018-Jun-21 13:00N 47°16' W 122°23'2 3.6
2018-Jun-21 12:31N 47°17' W 122°25'2 3.5
2018-Jun-21 12:01N 47°18' W 122°27'3 5.2
2018-Jun-21 11:31N 47°21' W 122°26'3 5.5
2018-Jun-21 11:01N 47°23' W 122°23'2 4.6
2018-Jun-21 10:31N 47°25' W 122°23'3 5.6
2018-Jun-21 10:01N 47°27' W 122°25'3 5.3
2018-Jun-21 09:31N 47°30' W 122°26'3 5.2
2018-Jun-21 09:00N 47°32' W 122°27'3 5.4
2018-Jun-21 08:31N 47°35' W 122°26'2 4.1
2018-Jun-21 08:00N 47°36' W 122°23'2 3.7
2018-Jun-21 07:29N 47°36' W 122°21'0 0.4
2018-Jun-21 07:00N 47°35' W 122°21'0 0.1
2018-Jun-21 06:31N 47°35' W 122°21'0 0.0
2018-Jun-21 06:00N 47°35' W 122°21'0 0.0
2018-Jun-21 05:30N 47°35' W 122°21'1 1.7
2018-Jun-21 04:57N 47°34' W 122°21'1 2.1
2018-Jun-21 04:31N 47°35' W 122°21'0 0.0
2018-Jun-21 04:01N 47°35' W 122°21'0 0.0
2018-Jun-21 03:31N 47°35' W 122°21'0 0.0
2018-Jun-21 03:01N 47°35' W 122°21'0 0.0
2018-Jun-21 02:31N 47°35' W 122°21'0 0.0
2018-Jun-21 02:00N 47°35' W 122°21'0 0.0
2018-Jun-21 01:31N 47°35' W 122°21'0 0.0
2018-Jun-21 00:59N 47°35' W 122°21'0 0.0
2018-Jun-21 00:30N 47°35' W 122°21'1 1.8
2018-Jun-21 00:00N 47°34' W 122°21'0 0.0
2018-Jun-20 23:30N 47°34' W 122°21'0 0.0
2018-Jun-20 23:01N 47°34' W 122°21'0 0.0
2018-Jun-20 22:30N 47°34' W 122°21'0 0.0
2018-Jun-20 22:01N 47°34' W 122°21'0 0.0
2018-Jun-20 21:30N 47°34' W 122°21'0 0.0
2018-Jun-20 21:00N 47°34' W 122°21'0 0.0
2018-Jun-20 20:31N 47°34' W 122°21'1 1.8
2018-Jun-20 20:00N 47°35' W 122°21'0 0.1
2018-Jun-20 19:31N 47°35' W 122°21'0 0.0
2018-Jun-20 19:00N 47°35' W 122°21'0 0.0
2018-Jun-20 18:31N 47°35' W 122°21'0 0.0
2018-Jun-20 18:01N 47°35' W 122°21'0 0.0
2018-Jun-20 17:31N 47°35' W 122°21'0 0.0
2018-Jun-20 17:00N 47°35' W 122°21'0 0.0
2018-Jun-20 16:31N 47°35' W 122°21'0 0.0
2018-Jun-20 16:01N 47°35' W 122°21'0 0.0
2018-Jun-20 15:30N 47°35' W 122°21'0 0.0
2018-Jun-20 14:59N 47°35' W 122°21'0 0.0
2018-Jun-20 14:31N 47°35' W 122°21'0 0.0
2018-Jun-20 13:59N 47°35' W 122°21'0 0.0
2018-Jun-20 13:30N 47°35' W 122°21'0 0.0
2018-Jun-20 13:00N 47°35' W 122°21'0 0.0
2018-Jun-20 12:31N 47°35' W 122°21'0 0.0
2018-Jun-20 12:01N 47°35' W 122°21'0 0.0
2018-Jun-20 11:30N 47°35' W 122°21'0 0.0
2018-Jun-20 11:00N 47°35' W 122°21'0 0.0
2018-Jun-20 10:31N 47°35' W 122°21'0 0.0
2018-Jun-20 10:01N 47°35' W 122°21'0 0.0
2018-Jun-20 09:30N 47°35' W 122°21'0 0.0
2018-Jun-20 08:59N 47°35' W 122°21'0 0.0
2018-Jun-20 08:29N 47°35' W 122°21'0 0.0
2018-Jun-20 07:58N 47°35' W 122°21'0 0.0
2018-Jun-20 07:30N 47°35' W 122°21'0 0.0
2018-Jun-20 07:00N 47°35' W 122°21'0 0.1
2018-Jun-20 06:29N 47°35' W 122°21'0 0.6
2018-Jun-20 06:00N 47°36' W 122°21'2 4.3
2018-Jun-20 05:30N 47°37' W 122°23'2 3.2
2018-Jun-20 05:01N 47°38' W 122°25'3 5.8
2018-Jun-20 04:30N 47°40' W 122°28'3 5.6
2018-Jun-20 04:01N 47°43' W 122°28'3 5.6
2018-Jun-20 03:30N 47°45' W 122°27'3 5.5
2018-Jun-20 03:01N 47°48' W 122°28'3 5.7
2018-Jun-20 02:31N 47°51' W 122°29'3 6.3
2018-Jun-20 02:01N 47°54' W 122°30'4 6.5
2018-Jun-20 01:24N 47°57' W 122°34'29 5.3
2018-Jun-19 19:59N 48°25' W 122°45'4 8.2
2018-Jun-19 19:29N 48°29' W 122°45'3 7.3
2018-Jun-19 19:01N 48°32' W 122°45'4 7.3
2018-Jun-19 18:31N 48°36' W 122°46'3 6.2
2018-Jun-19 18:00N 48°39' W 122°44'3 6.0
2018-Jun-19 17:30N 48°42' W 122°45'1 0.0
2018-Jun-18 17:14N 48°43' W 122°44'1 4.9
2018-Jun-18 16:59N 48°42' W 122°43'2 3.9
2018-Jun-18 16:31N 48°40' W 122°42'2 3.9
2018-Jun-18 16:00N 48°38' W 122°44'2 4.7
2018-Jun-18 15:30N 48°36' W 122°45'2 5.0
2018-Jun-18 15:00N 48°34' W 122°45'2 4.6
2018-Jun-18 14:31N 48°31' W 122°44'2 4.5
2018-Jun-18 13:58N 48°29' W 122°44'5 4.7
2018-Jun-18 13:00N 48°24' W 122°44'25 5.1
2018-Jun-18 08:03N 47°60' W 122°36'1 8.3
2018-Jun-18 07:55N 47°59' W 122°35'3 7.8
2018-Jun-18 07:29N 47°57' W 122°31'3 6.3
2018-Jun-18 07:01N 47°54' W 122°29'3 6.1
2018-Jun-18 06:30N 47°51' W 122°27'3 6.1
2018-Jun-18 06:01N 47°48' W 122°26'3 5.8
2018-Jun-18 05:31N 47°46' W 122°26'3 6.1
2018-Jun-18 05:01N 47°43' W 122°26'3 6.1
2018-Jun-18 04:31N 47°40' W 122°27'3 5.9
2018-Jun-18 04:01N 47°37' W 122°27'3 6.1
2018-Jun-18 03:30N 47°33' W 122°26'3 5.9
2018-Jun-18 03:01N 47°31' W 122°25'3 5.5
2018-Jun-18 02:30N 47°28' W 122°24'3 5.4
2018-Jun-18 02:01N 47°26' W 122°22'3 5.6
2018-Jun-18 01:31N 47°23' W 122°21'3 5.7
2018-Jun-18 01:00N 47°21' W 122°24'3 5.7
2018-Jun-18 00:30N 47°19' W 122°27'2 4.3
2018-Jun-18 00:01N 47°17' W 122°26'1 1.6
2018-Jun-17 23:29N 47°17' W 122°25'0 0.1
2018-Jun-17 22:59N 47°17' W 122°25'0 0.1
2018-Jun-17 22:30N 47°17' W 122°25'0 0.0
2018-Jun-17 21:58N 47°17' W 122°25'0 0.0
2018-Jun-17 21:28N 47°17' W 122°25'0 0.0
2018-Jun-17 20:59N 47°17' W 122°25'0 0.0
2018-Jun-17 20:28N 47°17' W 122°25'0 0.1
2018-Jun-17 20:01N 47°17' W 122°25'0 0.1
2018-Jun-17 19:31N 47°17' W 122°25'1 2.2
2018-Jun-17 19:00N 47°16' W 122°23'0 0.0
2018-Jun-17 18:30N 47°16' W 122°23'0 0.0
2018-Jun-17 18:00N 47°16' W 122°23'0 0.0
2018-Jun-17 17:30N 47°16' W 122°23'0 0.0
2018-Jun-17 17:00N 47°16' W 122°23'0 0.0
2018-Jun-17 16:31N 47°16' W 122°23'0 0.0
2018-Jun-17 16:01N 47°16' W 122°23'0 0.0
2018-Jun-17 15:28N 47°16' W 122°23'0 0.0
2018-Jun-17 14:48N 47°16' W 122°23'0 0.0
2018-Jun-17 14:31N 47°16' W 122°23'0 0.0
2018-Jun-17 13:52N 47°16' W 122°23'0 0.0
2018-Jun-17 13:30N 47°16' W 122°23'0 0.0
2018-Jun-17 13:01N 47°16' W 122°23'0 0.0
2018-Jun-17 12:30N 47°16' W 122°23'0 0.0
2018-Jun-17 12:01N 47°16' W 122°23'0 0.0
2018-Jun-17 11:30N 47°16' W 122°23'0 0.1
2018-Jun-17 10:59N 47°16' W 122°23'0 0.1
2018-Jun-17 10:31N 47°16' W 122°23'0 0.0
2018-Jun-17 10:01N 47°16' W 122°23'0 0.0
2018-Jun-17 09:31N 47°16' W 122°23'0 0.0
2018-Jun-17 09:01N 47°16' W 122°23'0 0.0
2018-Jun-17 08:30N 47°16' W 122°23'0 0.0
2018-Jun-17 08:00N 47°16' W 122°23'0 0.0
2018-Jun-17 07:31N 47°16' W 122°23'0 0.0
2018-Jun-17 07:01N 47°16' W 122°23'0 0.1
2018-Jun-17 06:31N 47°16' W 122°24'0 0.1
2018-Jun-17 06:01N 47°16' W 122°23'1 0.9
2018-Jun-17 05:24N 47°16' W 122°24'1 1.6
2018-Jun-17 05:00N 47°17' W 122°24'1 0.1
2018-Jun-16 21:51N 47°17' W 122°25'2 5.0
2018-Jun-16 21:30N 47°16' W 122°23'0 0.0
2018-Jun-16 20:59N 47°16' W 122°23'0 0.0
2018-Jun-16 20:29N 47°16' W 122°23'0 0.0
2018-Jun-16 20:00N 47°16' W 122°23'0 0.0
2018-Jun-16 19:30N 47°16' W 122°23'0 0.0
2018-Jun-16 19:00N 47°16' W 122°23'0 0.0
2018-Jun-16 18:29N 47°16' W 122°23'0 0.0
2018-Jun-16 18:01N 47°16' W 122°23'0 0.0
2018-Jun-16 17:30N 47°16' W 122°23'0 0.0
2018-Jun-16 17:01N 47°16' W 122°23'0 0.0
2018-Jun-16 16:31N 47°16' W 122°23'0 0.0
2018-Jun-16 16:00N 47°16' W 122°23'0 0.0
2018-Jun-16 15:24N 47°16' W 122°23'0 0.0
2018-Jun-16 15:01N 47°16' W 122°23'0 0.0
2018-Jun-16 14:31N 47°16' W 122°23'0 0.0
2018-Jun-16 13:59N 47°16' W 122°23'0 0.4
2018-Jun-16 13:30N 47°16' W 122°23'2 4.4
2018-Jun-16 13:01N 47°17' W 122°26'2 3.7
2018-Jun-16 12:30N 47°19' W 122°28'3 5.7
2018-Jun-16 12:00N 47°21' W 122°25'3 5.9
2018-Jun-16 11:31N 47°23' W 122°22'3 5.7
2018-Jun-16 11:01N 47°25' W 122°24'3 5.9
2018-Jun-16 10:31N 47°28' W 122°25'3 5.9
2018-Jun-16 10:00N 47°31' W 122°26'3 6.0
2018-Jun-16 09:31N 47°34' W 122°26'3 5.7
2018-Jun-16 09:00N 47°36' W 122°23'2 3.8
2018-Jun-16 08:31N 47°35' W 122°21'0 0.2
2018-Jun-16 08:01N 47°35' W 122°21'0 0.1
2018-Jun-16 07:31N 47°35' W 122°21'0 0.0
2018-Jun-16 07:00N 47°35' W 122°21'0 0.0
2018-Jun-16 06:30N 47°35' W 122°21'0 0.0
2018-Jun-16 06:01N 47°35' W 122°21'0 0.0
2018-Jun-16 05:30N 47°35' W 122°21'0 0.0
2018-Jun-16 05:01N 47°35' W 122°21'0 0.0
2018-Jun-16 04:31N 47°35' W 122°21'0 0.0
2018-Jun-16 04:00N 47°35' W 122°21'0 0.0
2018-Jun-16 03:31N 47°35' W 122°21'0 0.1
2018-Jun-16 03:00N 47°35' W 122°21'0 0.1
2018-Jun-16 02:31N 47°35' W 122°21'0 0.0
2018-Jun-16 02:01N 47°35' W 122°21'0 0.0
2018-Jun-16 01:31N 47°35' W 122°21'0 0.0
2018-Jun-16 01:01N 47°35' W 122°21'0 0.0
2018-Jun-16 00:30N 47°35' W 122°21'0 0.0
2018-Jun-16 00:00N 47°35' W 122°21'0 0.0
2018-Jun-15 23:29N 47°35' W 122°21'0 0.2
2018-Jun-15 22:57N 47°35' W 122°21'2 4.3
2018-Jun-15 22:27N 47°37' W 122°23'0 0.9
2018-Jun-15 22:00N 47°38' W 122°23'0 0.0
2018-Jun-15 21:30N 47°38' W 122°23'0 0.1
2018-Jun-15 21:00N 47°38' W 122°23'0 0.0
2018-Jun-15 20:30N 47°38' W 122°23'0 0.0
2018-Jun-15 20:00N 47°38' W 122°23'0 0.8
2018-Jun-15 19:31N 47°37' W 122°23'0 0.8
2018-Jun-15 19:01N 47°38' W 122°23'0 0.3
2018-Jun-15 18:30N 47°38' W 122°23'0 0.0
2018-Jun-15 18:01N 47°38' W 122°23'0 0.0
2018-Jun-15 17:31N 47°38' W 122°23'0 0.1
2018-Jun-15 17:01N 47°38' W 122°23'0 0.1
2018-Jun-15 16:30N 47°38' W 122°23'0 0.0
2018-Jun-15 16:01N 47°38' W 122°23'0 0.0
2018-Jun-15 15:31N 47°38' W 122°23'0 0.1
2018-Jun-15 14:59N 47°38' W 122°23'0 0.1
2018-Jun-15 14:31N 47°38' W 122°23'0 0.9
2018-Jun-15 14:00N 47°37' W 122°23'2 4.7
2018-Jun-15 13:30N 47°35' W 122°21'0 0.1
2018-Jun-15 13:01N 47°35' W 122°21'0 0.0
2018-Jun-15 12:30N 47°35' W 122°21'0 0.0
2018-Jun-15 12:00N 47°35' W 122°21'  

Dump ship's entire track history